Time;durP1;ratioP1;P1;durP2;ratioP2;P2;SDS_P1;SDS_P2;PMS_P1;PMS_P2;Temp;Humidity;BMP_temperature;BMP_pressure;BME280_temperature;BME280_humidity;BME280_pressure;Samples;Min_cycle;Max_cycle;Signal;HPM_P1;HPM_P2
2022/07/16 00:03:40;;;;;;;4.23;2.33;;;16.10;99.90;;;;;;5029231;28;20684;-76
2022/07/16 00:06:08;;;;;;;5.10;2.43;;;16.10;99.90;;;;;;5028922;28;20231;-76
2022/07/16 00:08:43;;;;;;;4.27;2.33;;;16.00;99.90;;;;;;5028116;28;20210;-77
2022/07/16 00:11:11;;;;;;;4.77;2.30;;;16.00;99.90;;;;;;5026572;28;20205;-76
2022/07/16 00:13:41;;;;;;;6.07;2.60;;;15.90;99.90;;;;;;5024926;28;20202;-76
2022/07/16 00:16:10;;;;;;;6.20;2.47;;;15.90;99.90;;;;;;5024920;28;20240;-76
2022/07/16 00:21:25;;;;;;;4.67;2.30;;;15.80;99.90;;;;;;5015913;28;20241;-77
2022/07/16 00:23:57;;;;;;;5.03;2.20;;;15.70;99.90;;;;;;5007535;28;20233;-76
2022/07/16 00:26:27;;;;;;;5.33;2.50;;;15.70;99.90;;;;;;5019245;28;20205;-79
2022/07/16 00:28:55;;;;;;;3.83;2.40;;;15.70;99.90;;;;;;5024694;28;20288;-76
2022/07/16 00:31:24;;;;;;;6.60;2.63;;;15.60;99.90;;;;;;5024925;28;20221;-79
2022/07/16 00:33:54;;;;;;;6.00;2.80;;;15.60;99.90;;;;;;5029482;28;20213;-77
2022/07/16 00:36:22;;;;;;;3.97;2.40;;;15.50;99.90;;;;;;5024637;28;20221;-77
2022/07/16 00:38:51;;;;;;;3.60;2.20;;;15.40;99.90;;;;;;5022405;28;20711;-76
2022/07/16 00:41:19;;;;;;;3.97;2.37;;;15.40;99.90;;;;;;5026321;28;20273;-76
2022/07/16 00:43:49;;;;;;;5.80;2.43;;;15.40;99.90;;;;;;5025466;28;20206;-77
2022/07/16 00:46:21;;;;;;;4.53;2.30;;;15.40;99.90;;;;;;5025798;28;20215;-77
2022/07/16 00:48:50;;;;;;;9.33;2.70;;;15.30;99.90;;;;;;5025762;28;20237;-76
2022/07/16 00:51:22;;;;;;;6.03;2.67;;;15.30;99.90;;;;;;5024623;28;20205;-77
2022/07/16 00:53:50;;;;;;;5.97;2.47;;;15.20;99.90;;;;;;5026118;28;20194;-77
2022/07/16 00:56:21;;;;;;;5.40;2.70;;;15.20;99.90;;;;;;5025907;28;20240;-78
2022/07/16 00:58:51;;;;;;;6.53;3.00;;;15.10;99.90;;;;;;5025439;28;20276;-76
2022/07/16 01:01:20;;;;;;;5.87;2.83;;;15.10;99.90;;;;;;5024472;28;20233;-77
2022/07/16 01:03:49;;;;;;;3.67;2.60;;;15.10;99.90;;;;;;5024637;28;20209;-76
2022/07/16 01:06:19;;;;;;;5.70;2.70;;;15.00;99.90;;;;;;5023842;28;20692;-77
2022/07/16 01:08:49;;;;;;;6.37;2.60;;;15.00;99.90;;;;;;5023030;28;20220;-77
2022/07/16 01:11:19;;;;;;;3.63;2.70;;;15.00;99.90;;;;;;5022568;28;20309;-77
2022/07/16 01:13:50;;;;;;;5.40;3.00;;;14.90;99.90;;;;;;5024767;28;20225;-77
2022/07/16 01:16:20;;;;;;;7.60;2.77;;;14.90;99.90;;;;;;5003488;28;20214;-77
2022/07/16 01:18:51;;;;;;;6.03;2.93;;;14.90;99.90;;;;;;5015003;28;20209;-75
2022/07/16 01:21:21;;;;;;;5.23;3.07;;;14.90;99.90;;;;;;5010131;28;20286;-77
2022/07/16 01:23:50;;;;;;;4.80;2.80;;;14.80;99.90;;;;;;5003008;28;20203;-78
2022/07/16 01:26:19;;;;;;;5.17;2.90;;;14.80;99.90;;;;;;5021180;28;20208;-79
2022/07/16 01:28:48;;;;;;;4.43;2.40;;;14.70;99.90;;;;;;5022836;28;20210;-78
2022/07/16 01:31:19;;;;;;;3.63;2.50;;;14.70;99.90;;;;;;5023997;28;20213;-76
2022/07/16 01:36:33;;;;;;;5.33;2.70;;;14.70;99.90;;;;;;5026215;28;20245;-78
2022/07/16 01:39:02;;;;;;;7.43;3.00;;;14.60;99.90;;;;;;5025707;28;20252;-78
2022/07/16 01:41:31;;;;;;;5.77;2.83;;;14.60;99.90;;;;;;5026780;28;20262;-77
2022/07/16 01:43:59;;;;;;;4.43;2.60;;;14.60;99.90;;;;;;5024590;28;20213;-76
2022/07/16 01:46:30;;;;;;;6.47;2.70;;;14.50;99.90;;;;;;5025990;28;20210;-77
2022/07/16 01:48:58;;;;;;;3.67;3.00;;;14.50;99.90;;;;;;5025850;28;20240;-76
2022/07/16 01:51:26;;;;;;;5.73;3.07;;;14.50;99.90;;;;;;5024096;28;20217;-74
2022/07/16 01:53:56;;;;;;;3.43;2.70;;;14.50;99.90;;;;;;5025251;28;20217;-79
2022/07/16 01:56:26;;;;;;;4.80;3.00;;;14.40;99.90;;;;;;5024694;28;20253;-78
2022/07/16 01:58:54;;;;;;;3.83;2.87;;;14.40;99.90;;;;;;5025439;28;20217;-79
2022/07/16 02:01:22;;;;;;;4.13;3.00;;;14.30;99.90;;;;;;5023860;28;20284;-77
2022/07/16 02:03:50;;;;;;;4.80;3.10;;;14.30;99.90;;;;;;5024674;28;20202;-78
2022/07/16 02:06:23;;;;;;;3.20;2.90;;;14.30;99.90;;;;;;5025991;28;20638;-79
2022/07/16 02:08:52;;;;;;;4.70;2.97;;;14.30;99.90;;;;;;5024250;28;20256;-76
2022/07/16 02:11:21;;;;;;;5.87;3.17;;;14.30;99.90;;;;;;5023333;28;20214;-76
2022/07/16 02:13:50;;;;;;;5.97;3.00;;;14.30;99.90;;;;;;5023534;28;20220;-77
2022/07/16 02:16:18;;;;;;;6.37;3.50;;;14.30;99.90;;;;;;5024115;28;20237;-77
2022/07/16 02:18:47;;;;;;;5.63;2.80;;;14.20;99.90;;;;;;5023408;28;20210;-78
2022/07/16 02:21:18;;;;;;;5.13;3.00;;;14.30;99.90;;;;;;5021889;28;20225;-77
2022/07/16 02:23:46;;;;;;;5.40;2.80;;;14.20;99.90;;;;;;5023003;28;20234;-78
2022/07/16 02:26:14;;;;;;;3.80;2.70;;;14.30;99.90;;;;;;5021062;28;20206;-76
2022/07/16 02:28:44;;;;;;;7.17;3.57;;;14.30;99.90;;;;;;5022079;28;20222;-79
2022/07/16 02:31:17;;;;;;;4.70;3.33;;;14.20;99.90;;;;;;5023014;28;20241;-78
2022/07/16 02:33:45;;;;;;;4.77;3.27;;;14.20;99.90;;;;;;5024460;28;20198;-78
2022/07/16 02:36:13;;;;;;;5.57;3.40;;;14.10;99.90;;;;;;5023064;28;20201;-77
2022/07/16 02:38:42;;;;;;;4.73;3.10;;;14.10;99.90;;;;;;5022385;28;20240;-78
2022/07/16 02:41:10;;;;;;;7.30;3.40;;;14.10;99.90;;;;;;5022343;28;20221;-78
2022/07/16 02:43:38;;;;;;;5.90;3.20;;;14.00;99.90;;;;;;5021399;28;20210;-76
2022/07/16 02:46:09;;;;;;;4.80;3.20;;;14.00;99.90;;;;;;5024019;28;20672;-76
2022/07/16 02:48:38;;;;;;;5.57;2.90;;;13.90;99.90;;;;;;5022052;28;20224;-76
2022/07/16 02:51:07;;;;;;;6.20;3.33;;;13.90;99.90;;;;;;5023759;28;20657;-77
2022/07/16 02:53:38;;;;;;;7.73;3.30;;;13.80;99.90;;;;;;5023850;28;20198;-77
2022/07/16 02:56:09;;;;;;;5.70;3.30;;;13.80;99.90;;;;;;5023015;28;20233;-76
2022/07/16 02:58:38;;;;;;;3.80;3.40;;;13.70;99.90;;;;;;5022262;28;20265;-78
2022/07/16 03:01:07;;;;;;;5.63;3.40;;;13.70;99.90;;;;;;5022832;28;20695;-79
2022/07/16 03:03:35;;;;;;;7.53;3.43;;;13.60;99.90;;;;;;5022496;28;20225;-79
2022/07/16 03:06:05;;;;;;;5.77;3.67;;;13.60;99.90;;;;;;5021934;28;20213;-79
2022/07/16 03:08:41;;;;;;;6.67;3.10;;;13.50;99.90;;;;;;5022378;28;20268;-78
2022/07/16 03:11:12;;;;;;;6.07;3.60;;;13.40;99.90;;;;;;5022241;28;20205;-78
2022/07/16 03:13:43;;;;;;;5.93;3.67;;;13.40;99.90;;;;;;5021519;28;20224;-78
2022/07/16 03:16:12;;;;;;;5.67;3.60;;;13.40;99.90;;;;;;5018538;28;20194;-78
2022/07/16 03:18:41;;;;;;;4.40;3.30;;;13.30;99.90;;;;;;5018129;28;20213;-78
2022/07/16 03:21:13;;;;;;;5.43;3.70;;;13.30;99.90;;;;;;5019244;28;20228;-76
2022/07/16 03:23:41;;;;;;;5.73;3.63;;;13.20;99.90;;;;;;5018929;28;20212;-77
2022/07/16 03:26:10;;;;;;;7.17;3.83;;;13.20;99.90;;;;;;5018616;28;20247;-77
2022/07/16 03:28:38;;;;;;;3.97;3.23;;;13.10;99.90;;;;;;5019712;28;20209;-77
2022/07/16 03:31:07;;;;;;;5.17;3.47;;;13.10;99.90;;;;;;5018499;28;20233;-76
2022/07/16 03:33:37;;;;;;;4.57;3.20;;;13.20;99.90;;;;;;5016584;28;20299;-76
2022/07/16 03:36:06;;;;;;;5.70;3.70;;;13.20;99.90;;;;;;5018724;28;20205;-77
2022/07/16 03:41:21;;;;;;;6.13;3.23;;;13.20;99.90;;;;;;5016921;28;20714;-77
2022/07/16 03:43:49;;;;;;;5.80;3.53;;;13.10;99.90;;;;;;5016243;28;20276;-77
2022/07/16 03:46:18;;;;;;;5.30;3.47;;;13.10;99.90;;;;;;5008713;28;20253;-76
2022/07/16 03:48:48;;;;;;;6.53;3.67;;;13.10;99.90;;;;;;5016903;28;20201;-77
2022/07/16 03:51:17;;;;;;;6.07;3.47;;;13.10;99.90;;;;;;5017648;28;20200;-79
2022/07/16 03:53:47;;;;;;;4.70;3.50;;;13.00;99.90;;;;;;5018373;28;20226;-80
2022/07/16 03:56:16;;;;;;;5.63;3.50;;;13.10;99.90;;;;;;5017004;28;20260;-76
2022/07/16 03:58:44;;;;;;;5.97;3.40;;;13.10;99.90;;;;;;5014311;28;20212;-78
2022/07/16 04:01:12;;;;;;;8.80;3.90;;;13.10;99.90;;;;;;5017371;28;20264;-78
2022/07/16 04:03:40;;;;;;;5.17;3.37;;;13.10;99.90;;;;;;5016933;28;20206;-77
2022/07/16 04:06:09;;;;;;;5.53;3.60;;;13.10;99.90;;;;;;5020626;28;20201;-78
2022/07/16 04:08:41;;;;;;;4.23;3.23;;;13.10;99.90;;;;;;5020151;28;20297;-76
2022/07/16 04:11:10;;;;;;;5.53;3.00;;;13.10;99.90;;;;;;5020827;28;20198;-78
2022/07/16 04:13:41;;;;;;;6.10;3.33;;;13.10;99.90;;;;;;5019767;28;20210;-76
2022/07/16 04:16:11;;;;;;;5.43;3.60;;;13.30;99.90;;;;;;5020930;28;20332;-77
2022/07/16 04:18:40;;;;;;;4.73;3.10;;;13.50;99.90;;;;;;5019506;28;20206;-77
2022/07/16 04:21:10;;;;;;;4.27;3.37;;;13.60;99.90;;;;;;5016054;28;20571;-76
2022/07/16 04:23:38;;;;;;;6.30;3.30;;;13.80;99.90;;;;;;5005474;28;20769;-76
2022/07/16 04:26:07;;;;;;;4.97;3.47;;;13.90;99.90;;;;;;5016100;28;20245;-75
2022/07/16 04:28:38;;;;;;;4.60;3.23;;;14.00;99.90;;;;;;5017202;28;20225;-76
2022/07/16 04:31:07;;;;;;;4.53;3.07;;;14.20;99.90;;;;;;5009574;28;20225;-76
2022/07/16 04:33:36;;;;;;;4.83;3.10;;;14.30;99.90;;;;;;5008694;28;20304;-78
2022/07/16 04:36:05;;;;;;;5.37;3.10;;;14.30;99.90;;;;;;5020426;28;20276;-76
2022/07/16 04:38:33;;;;;;;5.53;3.00;;;14.40;99.90;;;;;;5013396;28;20204;-77
2022/07/16 04:41:02;;;;;;;6.40;3.50;;;14.60;99.90;;;;;;5019149;28;20206;-75
2022/07/16 04:43:30;;;;;;;6.73;3.27;;;14.70;99.90;;;;;;5017085;28;20218;-75
2022/07/16 04:46:03;;;;;;;6.10;3.13;;;14.70;99.90;;;;;;5017693;28;20561;-77
2022/07/16 04:48:31;;;;;;;6.47;3.33;;;14.80;99.90;;;;;;5016913;28;20205;-78
2022/07/16 04:51:01;;;;;;;5.40;3.43;;;14.80;99.90;;;;;;5017843;28;20213;-79
2022/07/16 04:53:32;;;;;;;3.57;3.10;;;15.00;99.90;;;;;;5018513;28;20296;-76
2022/07/16 04:56:00;;;;;;;4.63;3.20;;;15.10;99.90;;;;;;5017622;28;20220;-76
2022/07/16 04:58:30;;;;;;;5.43;3.33;;;15.00;99.90;;;;;;5018115;28;20217;-77
2022/07/16 05:00:59;;;;;;;6.00;3.20;;;15.10;99.90;;;;;;5018726;28;20210;-76
2022/07/16 05:03:28;;;;;;;5.53;3.07;;;15.20;99.90;;;;;;5017032;28;20225;-76
2022/07/16 05:06:00;;;;;;;5.27;2.60;;;15.30;99.90;;;;;;5013297;28;20214;-77
2022/07/16 05:08:32;;;;;;;4.33;2.83;;;15.20;99.90;;;;;;5020226;28;20202;-76
2022/07/16 05:11:10;;;;;;;6.00;3.10;;;15.30;99.90;;;;;;5021729;28;20256;-77
2022/07/16 05:13:39;;;;;;;10.17;3.40;;;15.40;99.90;;;;;;5021361;28;20303;-76
2022/07/16 05:16:08;;;;;;;3.80;2.87;;;15.40;99.90;;;;;;5021199;28;20220;-78
2022/07/16 05:18:40;;;;;;;4.57;2.80;;;15.50;99.90;;;;;;5020138;28;20208;-78
2022/07/16 05:21:11;;;;;;;6.27;3.20;;;15.60;99.90;;;;;;5017962;28;20241;-78
2022/07/16 05:23:45;;;;;;;5.67;2.93;;;15.70;99.90;;;;;;5020718;28;20276;-77
2022/07/16 05:26:14;;;;;;;7.73;3.10;;;15.80;99.90;;;;;;5013967;28;20221;-76
2022/07/16 05:28:43;;;;;;;4.60;3.00;;;15.80;99.90;;;;;;5021958;28;20233;-77
2022/07/16 05:31:11;;;;;;;6.93;3.27;;;15.70;99.90;;;;;;5017784;28;20287;-78
2022/07/16 05:33:40;;;;;;;6.10;3.53;;;15.50;99.90;;;;;;5019111;28;20221;-77
2022/07/16 05:36:09;;;;;;;7.17;3.33;;;15.40;99.90;;;;;;5022797;28;20547;-77
2022/07/16 05:38:37;;;;;;;4.37;3.07;;;15.40;99.90;;;;;;5021005;28;20209;-79
2022/07/16 05:41:05;;;;;;;4.77;3.10;;;15.30;99.90;;;;;;5020945;28;20205;-78
2022/07/16 05:43:34;;;;;;;3.93;3.00;;;15.40;99.90;;;;;;5026373;28;20304;-77
2022/07/16 05:46:03;;;;;;;6.07;3.20;;;15.40;99.90;;;;;;5029608;28;20240;-78
2022/07/16 05:48:32;;;;;;;4.33;3.03;;;15.50;99.90;;;;;;5028896;28;20344;-77
2022/07/16 05:51:02;;;;;;;4.53;2.87;;;15.60;99.90;;;;;;5027916;28;20206;-78
2022/07/16 05:53:30;;;;;;;4.90;2.90;;;15.70;99.90;;;;;;5027137;28;20789;-77
2022/07/16 05:56:02;;;;;;;6.43;3.00;;;15.90;99.90;;;;;;5023888;28;20252;-79
2022/07/16 05:58:30;;;;;;;6.60;2.87;;;16.20;99.90;;;;;;5024966;28;20233;-79
2022/07/16 06:00:59;;;;;;;3.40;2.60;;;16.90;99.90;;;;;;5027901;28;20206;-77
2022/07/16 06:03:28;;;;;;;4.13;2.80;;;18.20;99.90;;;;;;5024883;28;20221;-79
2022/07/16 06:05:56;;;;;;;6.30;2.43;;;19.60;99.90;;;;;;5026786;28;20278;-79
2022/07/16 06:08:26;;;;;;;4.00;2.43;;;20.90;99.90;;;;;;5028955;28;20233;-80
2022/07/16 06:10:59;;;;;;;6.53;2.60;;;22.10;99.90;;;;;;5033676;28;20206;-79
2022/07/16 06:13:27;;;;;;;7.20;2.50;;;23.20;99.90;;;;;;5034795;28;20201;-80
2022/07/16 06:15:56;;;;;;;5.93;2.47;;;24.50;97.70;;;;;;5034197;28;20214;-81
2022/07/16 06:18:24;;;;;;;5.60;2.40;;;25.30;94.50;;;;;;5034420;28;20216;-80
2022/07/16 06:20:52;;;;;;;5.73;2.30;;;25.70;93.30;;;;;;5037625;28;20200;-81
2022/07/16 06:23:21;;;;;;;7.47;2.42;;;26.70;90.30;;;;;;5037833;28;20213;-82
2022/07/16 06:25:51;;;;;;;4.25;2.28;;;27.00;88.90;;;;;;5036965;28;20213;-81
2022/07/16 06:28:19;;;;;;;5.40;2.35;;;27.50;85.90;;;;;;5035759;28;20206;-83
2022/07/16 06:30:48;;;;;;;5.70;2.50;;;28.50;82.00;;;;;;5034980;28;20209;-82
2022/07/16 06:33:16;;;;;;;4.57;2.25;;;28.80;77.90;;;;;;5030001;28;20214;-82
2022/07/16 06:35:44;;;;;;;4.95;2.30;;;28.90;74.50;;;;;;5016724;28;20238;-83
2022/07/16 06:38:19;;;;;;;5.15;2.50;;;29.00;73.20;;;;;;5025455;28;20205;-81
2022/07/16 06:40:47;;;;;;;5.53;2.42;;;28.80;72.60;;;;;;5034908;28;20194;-82
2022/07/16 06:43:17;;;;;;;3.90;2.38;;;29.30;71.30;;;;;;5031243;28;20230;-82
2022/07/16 06:45:45;;;;;;;6.25;2.53;;;28.60;72.40;;;;;;5032930;28;20687;-83
2022/07/16 06:48:13;;;;;;;4.63;2.20;;;28.90;73.40;;;;;;5033506;28;20205;-82
2022/07/16 06:50:42;;;;;;;4.30;2.38;;;29.10;69.30;;;;;;5037237;28;20193;-83
2022/07/16 06:53:10;;;;;;;4.95;2.40;;;29.90;72.20;;;;;;5036873;28;20229;-83
2022/07/16 06:55:38;;;;;;;3.15;2.50;;;30.60;66.90;;;;;;5036787;28;20198;-82
2022/07/16 06:58:06;;;;;;;3.30;2.28;;;31.00;67.30;;;;;;5036564;28;20198;-84
2022/07/16 07:00:36;;;;;;;3.45;2.22;;;31.30;63.40;;;;;;5037770;28;20198;-84
2022/07/16 07:03:05;;;;;;;5.05;2.47;;;31.50;64.00;;;;;;5017431;28;20222;-83
2022/07/16 07:05:33;;;;;;;4.47;2.30;;;31.50;61.60;;;;;;5031237;28;20236;-85
2022/07/16 07:08:04;;;;;;;4.78;2.10;;;31.50;60.30;;;;;;5031796;28;20205;-84
2022/07/16 07:10:32;;;;;;;5.53;2.38;;;31.70;62.10;;;;;;5032966;28;20208;-84
2022/07/16 07:13:00;;;;;;;5.50;2.50;;;31.80;59.70;;;;;;5035050;28;20213;-84
2022/07/16 07:15:29;;;;;;;4.85;2.13;;;31.00;62.00;;;;;;5032723;28;20224;-83
2022/07/16 07:17:58;;;;;;;4.07;2.10;;;31.80;61.10;;;;;;5033996;28;20206;-82
2022/07/16 07:20:27;;;;;;;3.92;2.25;;;32.20;58.50;;;;;;5009658;28;20213;-83
2022/07/16 07:22:55;;;;;;;6.07;2.30;;;32.20;59.50;;;;;;5010285;28;20222;-83
2022/07/16 07:25:23;;;;;;;7.32;2.25;;;31.40;59.60;;;;;;5002842;28;20261;-83
2022/07/16 07:27:52;;;;;;;4.70;2.08;;;31.30;58.20;;;;;;5008831;28;20210;-82
2022/07/16 07:30:20;;;;;;;3.30;2.20;;;31.50;60.00;;;;;;5011098;28;20218;-82
2022/07/16 07:32:49;;;;;;;3.25;2.05;;;32.20;58.30;;;;;;5027603;28;20202;-83
2022/07/16 07:35:21;;;;;;;4.80;2.13;;;32.60;58.50;;;;;;5028607;28;20207;-83
2022/07/16 07:37:49;;;;;;;3.85;2.00;;;32.00;57.10;;;;;;5030289;28;20206;-84
2022/07/16 07:40:18;;;;;;;4.07;2.00;;;32.70;56.90;;;;;;5021678;28;20272;-82
2022/07/16 07:42:46;;;;;;;3.22;1.85;;;33.20;55.80;;;;;;5022207;28;20213;-84
2022/07/16 07:45:14;;;;;;;3.97;1.90;;;32.20;55.30;;;;;;5019738;28;20209;-83
2022/07/16 07:47:43;;;;;;;3.70;2.00;;;32.40;55.00;;;;;;5024812;28;20213;-84
2022/07/16 07:50:11;;;;;;;2.20;1.90;;;32.60;55.20;;;;;;5023968;28;20213;-82
2022/07/16 07:52:44;;;;;;;4.13;1.80;;;32.30;55.00;;;;;;5025261;28;20209;-85
2022/07/16 07:55:12;;;;;;;3.70;1.90;;;32.60;55.60;;;;;;5023916;28;20198;-81
2022/07/16 07:57:40;;;;;;;5.20;1.98;;;32.50;55.20;;;;;;5021398;28;20249;-85
2022/07/16 08:00:15;;;;;;;5.25;2.20;;;33.30;53.80;;;;;;5021434;28;20214;-83
2022/07/16 08:02:45;;;;;;;4.03;2.10;;;33.30;53.20;;;;;;5024069;28;20269;-83
2022/07/16 08:05:14;;;;;;;4.82;2.10;;;32.60;53.70;;;;;;5019462;28;20224;-85
2022/07/16 08:07:44;;;;;;;4.07;2.13;;;32.70;54.40;;;;;;5026170;28;20206;-84
2022/07/16 08:10:13;;;;;;;7.15;4.40;;;33.00;53.80;;;;;;5020085;28;20189;-81
2022/07/16 08:12:42;;;;;;;5.68;2.55;;;33.10;54.00;;;;;;5026999;28;20252;-85
2022/07/16 08:15:11;;;;;;;3.85;2.30;;;32.70;52.40;;;;;;5023098;28;20205;-85
2022/07/16 08:17:40;;;;;;;5.78;2.63;;;33.10;51.70;;;;;;5023559;28;20218;-83
2022/07/16 08:20:13;;;;;;;5.68;2.35;;;32.60;54.40;;;;;;5019611;28;20206;-84
2022/07/16 08:22:41;;;;;;;4.38;2.50;;;33.00;52.10;;;;;;5016823;28;20228;-82
2022/07/16 08:28:00;;;;;;;5.07;2.60;;;33.10;54.30;;;;;;5017268;28;20724;-83
2022/07/16 08:30:28;;;;;;;3.95;2.30;;;33.00;53.20;;;;;;5015282;28;20273;-82
2022/07/16 08:32:57;;;;;;;4.88;2.20;;;33.10;53.50;;;;;;5016024;28;20236;-81
2022/07/16 08:35:30;;;;;;;5.13;2.47;;;32.70;51.70;;;;;;5015386;28;20197;-85
2022/07/16 08:37:59;;;;;;;2.72;2.10;;;32.90;53.10;;;;;;5017297;28;20567;-84
2022/07/16 08:40:29;;;;;;;5.22;2.42;;;32.80;53.10;;;;;;5020485;28;20206;-82
2022/07/16 08:42:58;;;;;;;5.28;2.50;;;32.40;55.10;;;;;;5021194;28;20205;-86
2022/07/16 08:45:26;;;;;;;4.35;2.22;;;32.50;52.00;;;;;;5024859;28;20662;-83
2022/07/16 08:47:54;;;;;;;5.03;2.40;;;32.50;54.40;;;;;;5018550;28;20275;-82
2022/07/16 08:50:23;;;;;;;4.78;2.45;;;31.20;52.80;;;;;;5023841;28;20260;-84
2022/07/16 08:52:57;;;;;;;5.05;2.53;;;30.20;54.70;;;;;;5025932;28;20235;-81
2022/07/16 08:55:27;;;;;;;4.05;2.53;;;30.30;55.30;;;;;;5020413;28;20220;-84
2022/07/16 08:57:58;;;;;;;5.85;2.53;;;30.70;56.10;;;;;;5020244;28;20213;-80
2022/07/16 09:00:27;;;;;;;6.72;2.40;;;32.00;54.60;;;;;;5015597;28;20670;-84
2022/07/16 09:02:56;;;;;;;4.20;2.20;;;32.60;52.50;;;;;;5019048;28;20229;-83
2022/07/16 09:05:24;;;;;;;4.32;2.67;;;33.30;51.50;;;;;;5018788;28;20236;-84
2022/07/16 09:07:53;;;;;;;4.15;2.33;;;32.80;51.10;;;;;;5019051;28;20213;-86
2022/07/16 09:10:21;;;;;;;2.90;1.90;;;32.60;51.90;;;;;;5019229;28;20217;-86
2022/07/16 09:12:50;;;;;;;3.70;2.25;;;33.50;51.70;;;;;;5023363;28;20233;-85
2022/07/16 09:15:31;;;;;;;3.97;2.42;;;33.20;51.10;;;;;;5019356;28;20232;-83
2022/07/16 09:18:13;;;;;;;4.57;2.17;;;33.20;50.10;;;;;;5017583;28;20201;-85
2022/07/16 09:20:43;;;;;;;6.05;2.40;;;33.40;51.50;;;;;;5016262;28;20193;-83
2022/07/16 09:23:22;;;;;;;4.85;2.17;;;33.50;49.50;;;;;;5017288;28;20575;-81
2022/07/16 09:25:54;;;;;;;5.47;2.15;;;33.50;51.00;;;;;;5016397;28;20300;-83
2022/07/16 09:28:23;;;;;;;4.38;2.42;;;33.60;49.30;;;;;;5017897;28;20201;-83
2022/07/16 09:30:53;;;;;;;2.85;2.17;;;33.60;48.90;;;;;;5018357;28;20870;-84
2022/07/16 09:33:23;;;;;;;5.93;2.55;;;34.10;48.30;;;;;;5019070;28;20570;-84
2022/07/16 09:36:06;;;;;;;4.68;2.72;;;33.90;49.40;;;;;;5016700;28;20194;-83
2022/07/16 09:38:52;;;;;;;5.85;2.50;;;33.20;49.90;;;;;;5015615;28;20194;-84
2022/07/16 09:41:22;;;;;;;6.68;2.00;;;32.80;49.00;;;;;;5019154;28;20296;-84
2022/07/16 09:43:51;;;;;;;4.32;2.28;;;33.30;48.30;;;;;;5018083;28;20217;-82
2022/07/16 09:46:22;;;;;;;5.03;2.20;;;33.50;48.10;;;;;;5020558;28;20750;-85
2022/07/16 09:48:52;;;;;;;8.52;3.92;;;33.50;48.20;;;;;;5019139;28;20192;-80
2022/07/16 09:51:25;;;;;;;2.90;2.17;;;33.70;50.40;;;;;;5019545;28;20236;-84
2022/07/16 09:53:56;;;;;;;6.47;2.35;;;33.60;48.90;;;;;;5001149;28;20234;-83
2022/07/16 09:56:27;;;;;;;3.25;2.10;;;34.00;46.60;;;;;;5024781;28;20618;-86
2022/07/16 09:58:57;;;;;;;5.25;2.40;;;33.60;49.70;;;;;;5011838;28;20209;-80
2022/07/16 10:01:34;;;;;;;4.30;2.35;;;33.80;48.10;;;;;;5021149;28;20211;-85
2022/07/16 10:04:07;;;;;;;3.58;2.10;;;33.40;51.20;;;;;;5019985;28;20252;-82
2022/07/16 10:06:38;;;;;;;4.93;2.28;;;33.60;47.90;;;;;;5019861;28;20217;-83
2022/07/16 10:09:08;;;;;;;3.20;2.10;;;33.80;48.80;;;;;;5016334;28;20212;-82
2022/07/16 10:11:38;;;;;;;3.13;2.30;;;32.70;48.80;;;;;;5018107;28;20209;-83
2022/07/16 10:14:06;;;;;;;3.17;2.13;;;33.00;48.30;;;;;;5022384;28;20221;-83
2022/07/16 10:16:40;;;;;;;2.90;2.10;;;32.90;48.60;;;;;;5016812;28;20209;-82
2022/07/16 10:19:09;;;;;;;3.97;2.45;;;33.00;49.10;;;;;;5017467;28;20223;-83
2022/07/16 10:21:38;;;;;;;6.10;2.30;;;33.00;47.70;;;;;;5017961;28;20560;-81
2022/07/16 10:24:10;;;;;;;4.65;2.20;;;32.60;49.30;;;;;;5019693;28;20272;-82
2022/07/16 10:26:39;;;;;;;5.10;2.33;;;33.00;47.60;;;;;;5008342;28;20210;-81
2022/07/16 10:29:07;;;;;;;5.28;2.35;;;32.80;48.50;;;;;;5003614;28;20255;-83
2022/07/16 10:32:27;;;;;;;2.50;2.13;;;32.80;48.60;;;;;;5018488;28;20273;-80
2022/07/16 10:34:34;;;;;;;2.67;2.38;;;32.20;47.80;;;;;;5023465;28;20213;-82
2022/07/16 10:37:07;;;;;;;4.57;2.25;;;31.60;50.40;;;;;;5023767;28;20205;-79
2022/07/16 10:40:06;;;;;;;6.50;2.58;;;31.70;50.80;;;;;;5024564;28;20235;-85
2022/07/16 10:42:37;;;;;;;3.75;2.58;;;32.50;50.10;;;;;;5024421;28;20568;-79
2022/07/16 10:45:06;;;;;;;6.60;2.28;;;32.80;50.20;;;;;;5026027;28;20257;-85
2022/07/16 10:47:50;;;;;;;4.43;2.38;;;32.70;50.60;;;;;;5026065;28;20244;-83
2022/07/16 10:50:22;;;;;;;5.53;2.75;;;32.90;51.00;;;;;;5029246;28;20209;-84
2022/07/16 10:52:52;;;;;;;3.60;2.08;;;32.20;50.60;;;;;;5027548;28;20209;-83
2022/07/16 10:55:38;;;;;;;2.28;1.90;;;32.30;52.20;;;;;;5023998;28;20213;-81
2022/07/16 10:58:10;;;;;;;4.03;2.15;;;32.20;51.30;;;;;;5029161;28;20217;-83
2022/07/16 11:00:39;;;;;;;3.55;2.10;;;32.90;48.70;;;;;;5031604;28;20221;-81
2022/07/16 11:03:10;;;;;;;5.40;2.10;;;31.80;51.60;;;;;;5049936;28;20211;-82
2022/07/16 11:05:46;;;;;;;6.32;2.38;;;32.20;48.40;;;;;;5045460;28;20227;-85
2022/07/16 11:08:14;;;;;;;4.38;2.10;;;32.70;47.80;;;;;;5026073;28;20263;-81
2022/07/16 11:10:42;;;;;;;3.08;2.05;;;32.60;49.60;;;;;;5037011;28;20301;-83
2022/07/16 11:13:13;;;;;;;3.95;2.10;;;32.40;46.60;;;;;;5041522;28;20304;-84
2022/07/16 11:15:42;;;;;;;3.15;2.00;;;32.60;49.70;;;;;;5033655;28;20209;-83
2022/07/16 11:18:16;;;;;;;3.30;2.15;;;32.60;51.50;;;;;;5017491;28;20659;-84
2022/07/16 11:20:53;;;;;;;4.38;2.20;;;32.40;48.80;;;;;;5020890;28;20539;-85
2022/07/16 11:23:21;;;;;;;4.38;2.38;;;32.40;49.00;;;;;;5022969;28;20711;-85
2022/07/16 11:25:59;;;;;;;4.22;2.10;;;32.70;48.10;;;;;;5021810;28;20217;-84
2022/07/16 11:28:27;;;;;;;3.35;2.10;;;32.40;50.00;;;;;;5023625;28;20640;-84
2022/07/16 11:31:03;;;;;;;3.17;2.20;;;31.90;50.60;;;;;;5025380;28;20735;-83
2022/07/16 11:33:52;;;;;;;8.85;2.17;;;31.00;51.10;;;;;;5026394;28;20262;-83
2022/07/16 11:36:21;;;;;;;3.58;2.20;;;30.90;51.00;;;;;;5026090;28;20209;-81
2022/07/16 11:38:49;;;;;;;4.13;1.90;;;30.40;51.80;;;;;;5025899;28;20214;-84
2022/07/16 11:41:18;;;;;;;4.85;2.38;;;30.20;52.20;;;;;;5018326;28;20214;-81
2022/07/16 11:43:46;;;;;;;5.03;2.30;;;30.30;52.20;;;;;;5028029;28;20260;-83
2022/07/16 11:46:25;;;;;;;3.13;2.15;;;30.20;52.30;;;;;;5025233;28;20227;-81
2022/07/16 11:48:56;;;;;;;4.93;2.20;;;29.90;54.60;;;;;;5030518;28;20209;-84
2022/07/16 11:51:25;;;;;;;3.78;2.03;;;29.70;54.50;;;;;;5022274;28;20248;-82
2022/07/16 11:53:55;;;;;;;2.65;1.80;;;29.70;52.00;;;;;;5026222;28;20212;-83
2022/07/16 11:56:43;;;;;;;2.42;1.70;;;29.70;53.80;;;;;;5024357;28;20224;-81
2022/07/16 11:59:21;;;;;;;2.00;1.73;;;29.40;53.10;;;;;;5023029;28;20233;-83
2022/07/16 12:01:59;;;;;;;2.53;1.83;;;29.40;53.80;;;;;;5033047;28;20280;-78
2022/07/16 12:04:39;;;;;;;3.80;2.00;;;29.40;53.30;;;;;;5031255;28;20244;-81
2022/07/16 12:07:09;;;;;;;4.80;1.97;;;28.80;53.70;;;;;;5026944;28;20269;-80
2022/07/16 12:09:40;;;;;;;3.13;1.67;;;28.80;52.00;;;;;;5028557;28;20213;-78
2022/07/16 12:12:14;;;;;;;2.77;1.93;;;28.80;51.90;;;;;;5032066;28;20237;-79
2022/07/16 12:14:48;;;;;;;3.57;1.83;;;28.60;53.80;;;;;;5015746;28;20232;-80
2022/07/16 12:17:38;;;;;;;4.63;1.77;;;28.50;55.20;;;;;;5007436;28;20297;-79
2022/07/16 12:20:14;;;;;;;6.53;2.17;;;28.40;53.00;;;;;;5009880;28;20206;-79
2022/07/16 12:23:00;;;;;;;2.70;1.50;;;28.30;52.00;;;;;;5008260;28;20198;-79
2022/07/16 12:25:35;;;;;;;4.87;1.77;;;28.50;53.80;;;;;;5013105;28;20194;-80
2022/07/16 12:28:06;;;;;;;2.43;1.60;;;28.40;53.80;;;;;;5016817;28;20215;-79
2022/07/16 12:30:40;;;;;;;2.10;1.70;;;28.60;51.90;;;;;;5028532;28;20201;-78
2022/07/16 12:33:21;;;;;;;3.00;1.60;;;28.50;53.10;;;;;;5027308;28;20193;-81
2022/07/16 12:35:53;;;;;;;5.37;1.70;;;28.50;53.70;;;;;;5023605;28;20193;-80
2022/07/16 12:38:47;;;;;;;3.53;1.57;;;28.50;51.60;;;;;;5023979;28;20225;-82
2022/07/16 12:41:19;;;;;;;4.03;1.50;;;28.30;52.40;;;;;;5033142;28;20205;-77
2022/07/16 12:43:49;;;;;;;2.47;1.50;;;28.20;52.90;;;;;;5031953;28;20197;-81
2022/07/16 12:46:18;;;;;;;1.83;1.40;;;28.40;54.10;;;;;;5029049;28;20229;-78
2022/07/16 12:48:48;;;;;;;4.43;1.93;;;28.60;54.00;;;;;;5026935;28;20236;-78
2022/07/16 12:51:20;;;;;;;3.10;1.80;;;28.50;52.20;;;;;;5029069;28;20260;-80
2022/07/16 12:53:49;;;;;;;5.00;1.60;;;28.70;52.70;;;;;;5029553;28;20241;-80
2022/07/16 12:59:04;;;;;;;2.13;1.67;;;28.50;53.60;;;;;;5021617;28;20209;-79
2022/07/16 13:01:34;;;;;;;4.20;1.60;;;28.30;53.30;;;;;;5025896;28;20217;-81
2022/07/16 13:04:03;;;;;;;4.23;1.70;;;28.40;55.00;;;;;;5023396;28;20210;-78
2022/07/16 13:06:34;;;;;;;4.30;1.67;;;28.30;52.70;;;;;;5013450;28;20254;-77
2022/07/16 13:09:03;;;;;;;3.73;1.73;;;28.20;52.70;;;;;;5013710;28;20220;-77
2022/07/16 13:11:35;;;;;;;4.67;1.80;;;28.50;52.70;;;;;;5010007;28;20205;-77
2022/07/16 13:14:04;;;;;;;4.13;1.67;;;28.50;54.20;;;;;;5014150;28;20206;-78
2022/07/16 13:16:36;;;;;;;2.93;1.60;;;28.50;55.00;;;;;;5011145;28;20226;-77
2022/07/16 13:19:05;;;;;;;3.30;1.93;;;28.50;52.70;;;;;;5014360;28;20254;-77
2022/07/16 13:21:36;;;;;;;4.07;1.80;;;28.50;53.00;;;;;;5012306;28;20209;-77